Time;durP1;ratioP1;P1;durP2;ratioP2;P2;SDS_P1;SDS_P2;PMS_P1;PMS_P2;Temp;Humidity;BMP_temperature;BMP_pressure;BME280_temperature;BME280_humidity;BME280_pressure;Samples;Min_cycle;Max_cycle;Signal;HPM_P1;HPM_P2
2023/10/01 00:01:43;;;;;;;83.75;78.40;;;17.70;99.90;;;;;;5037030;28;20070;-71
2023/10/01 00:04:09;;;;;;;78.70;73.35;;;17.40;99.90;;;;;;5032477;28;20037;-71
2023/10/01 00:06:36;;;;;;;71.53;66.93;;;17.40;99.90;;;;;;5032082;28;20029;-71
2023/10/01 00:09:05;;;;;;;77.18;71.88;;;17.40;99.90;;;;;;5032427;28;20026;-71
2023/10/01 00:11:37;;;;;;;72.03;67.38;;;17.30;99.90;;;;;;5031055;28;20037;-71
2023/10/01 00:14:07;;;;;;;66.10;61.40;;;17.40;99.90;;;;;;5032264;28;20045;-71
2023/10/01 00:16:34;;;;;;;71.00;66.32;;;17.50;99.90;;;;;;5031409;28;20053;-72
2023/10/01 00:19:00;;;;;;;69.03;64.32;;;17.60;99.90;;;;;;5032144;28;20056;-71
2023/10/01 00:21:27;;;;;;;67.40;63.05;;;17.60;99.90;;;;;;5031755;28;20042;-71
2023/10/01 00:23:54;;;;;;;75.97;70.82;;;17.60;99.90;;;;;;5031917;28;20024;-71
2023/10/01 00:26:20;;;;;;;73.22;68.15;;;17.50;99.90;;;;;;5029796;28;20042;-71
2023/10/01 00:28:50;;;;;;;71.93;66.53;;;17.50;99.90;;;;;;5031232;28;20040;-71
2023/10/01 00:31:17;;;;;;;71.20;66.47;;;17.40;99.90;;;;;;5031022;28;20403;-71
2023/10/01 00:33:45;;;;;;;65.18;60.55;;;17.40;99.90;;;;;;5031741;28;20038;-71
2023/10/01 00:36:11;;;;;;;65.32;60.70;;;17.30;99.90;;;;;;5031587;28;20025;-71
2023/10/01 00:38:37;;;;;;;62.97;58.38;;;17.40;99.90;;;;;;5032198;28;20396;-70
2023/10/01 00:41:04;;;;;;;66.72;62.28;;;17.40;99.90;;;;;;5031732;28;20033;-71
2023/10/01 00:43:31;;;;;;;64.50;60.08;;;17.40;99.90;;;;;;5032210;28;20045;-71
2023/10/01 00:45:58;;;;;;;64.47;59.88;;;17.50;99.90;;;;;;5038725;28;20033;-71
2023/10/01 00:48:24;;;;;;;65.57;60.88;;;17.60;99.90;;;;;;5052058;28;20484;-72
2023/10/01 00:50:52;;;;;;;75.40;70.05;;;17.50;99.90;;;;;;5049929;28;20029;-72
2023/10/01 00:53:19;;;;;;;62.80;58.50;;;17.50;99.90;;;;;;5049484;28;20047;-71
2023/10/01 00:55:45;;;;;;;74.10;69.10;;;17.60;99.90;;;;;;5050377;28;20099;-71
2023/10/01 00:58:11;;;;;;;67.95;63.22;;;17.60;99.90;;;;;;5051676;28;20025;-71
2023/10/01 01:00:37;;;;;;;68.97;64.43;;;17.60;99.90;;;;;;5053398;28;20033;-71
2023/10/01 01:03:08;;;;;;;67.15;62.65;;;17.50;99.90;;;;;;5055393;28;20052;-71
2023/10/01 01:05:35;;;;;;;;;;;17.20;99.90;;;;;;5055449;28;20033;-71
2023/10/01 01:08:09;;;;;;;64.97;60.15;;;17.00;99.90;;;;;;5055406;28;19912;-71
2023/10/01 01:10:39;;;;;;;55.63;51.35;;;16.90;99.90;;;;;;5052918;28;20037;-71
2023/10/01 01:13:06;;;;;;;54.22;50.10;;;16.80;99.90;;;;;;5054558;28;20021;-71
2023/10/01 01:15:34;;;;;;;50.38;46.25;;;16.70;99.90;;;;;;5054033;28;20406;-71
2023/10/01 01:18:07;;;;;;;50.65;46.30;;;16.80;99.90;;;;;;5055633;28;20025;-71
2023/10/01 01:20:36;;;;;;;51.88;47.60;;;16.80;99.90;;;;;;5054700;28;20032;-71
2023/10/01 01:23:06;;;;;;;52.90;48.67;;;16.90;99.90;;;;;;5054817;28;20048;-71
2023/10/01 01:25:36;;;;;;;48.67;44.85;;;16.90;99.90;;;;;;5036233;28;20045;-71
2023/10/01 01:28:07;;;;;;;48.67;44.87;;;16.80;99.90;;;;;;5055295;28;20052;-71
2023/10/01 01:30:41;;;;;;;47.70;43.55;;;16.70;99.90;;;;;;5054519;28;20040;-70
2023/10/01 01:33:16;;;;;;;47.30;43.30;;;16.70;99.90;;;;;;5054632;28;20045;-72
2023/10/01 01:35:43;;;;;;;48.08;44.30;;;16.60;99.90;;;;;;5053947;28;20056;-71
2023/10/01 01:38:09;;;;;;;50.88;46.80;;;16.50;99.90;;;;;;5054191;28;20051;-72
2023/10/01 01:40:40;;;;;;;50.95;46.80;;;16.50;99.90;;;;;;5054750;28;20037;-71
2023/10/01 01:43:15;;;;;;;62.05;57.55;;;16.50;99.90;;;;;;5054468;28;20041;-71
2023/10/01 01:45:47;;;;;;;49.42;45.42;;;16.60;99.90;;;;;;5053830;28;20135;-71
2023/10/01 01:48:30;;;;;;;58.33;54.08;;;16.70;99.90;;;;;;5055088;28;20025;-71
2023/10/01 01:50:58;;;;;;;56.25;51.88;;;16.90;99.90;;;;;;5054528;28;20051;-71
2023/10/01 01:53:34;;;;;;;57.05;52.80;;;17.00;99.90;;;;;;5053607;28;20041;-71
2023/10/01 01:56:04;;;;;;;58.92;54.33;;;16.90;99.90;;;;;;5053175;28;20028;-71
2023/10/01 01:58:32;;;;;;;57.17;52.78;;;16.90;99.90;;;;;;5054413;28;20045;-72
2023/10/01 02:01:08;;;;;;;60.20;55.78;;;16.70;99.90;;;;;;5053653;28;20033;-72
2023/10/01 02:03:37;;;;;;;65.85;60.92;;;16.80;99.90;;;;;;5053714;28;20423;-71
2023/10/01 02:06:07;;;;;;;55.05;50.72;;;16.80;99.90;;;;;;5052709;28;20376;-71
2023/10/01 02:11:19;;;;;;;49.97;45.67;;;16.60;99.90;;;;;;5057477;28;20025;-71
2023/10/01 02:13:46;;;;;;;66.72;61.92;;;16.60;99.90;;;;;;5053887;28;20056;-71
2023/10/01 02:16:19;;;;;;;58.03;53.65;;;16.40;99.90;;;;;;5053200;28;20048;-71
2023/10/01 02:18:56;;;;;;;56.03;51.63;;;16.30;99.90;;;;;;5054366;28;20041;-72
2023/10/01 02:21:42;;;;;;;50.80;46.47;;;16.50;99.90;;;;;;5053289;28;20045;-71
2023/10/01 02:24:11;;;;;;;46.22;42.35;;;16.50;99.90;;;;;;5053792;28;20036;-71
2023/10/01 02:26:41;;;;;;;56.80;52.67;;;16.30;99.90;;;;;;5053166;28;20049;-71
2023/10/01 02:29:13;;;;;;;61.35;56.95;;;16.20;99.90;;;;;;5054237;28;20030;-71
2023/10/01 02:31:47;;;;;;;58.45;54.00;;;16.10;99.90;;;;;;5052733;28;20040;-71
2023/10/01 02:34:14;;;;;;;56.42;52.10;;;16.20;99.90;;;;;;5053636;28;20048;-71
2023/10/01 02:36:42;;;;;;;59.15;54.72;;;16.10;99.90;;;;;;5053350;28;20025;-71
2023/10/01 02:39:20;;;;;;;65.72;60.58;;;16.10;99.90;;;;;;5053630;28;20048;-71
2023/10/01 02:44:48;;;;;;;;;;;16.00;99.90;;;;;;5013398;28;20048;-71
2023/10/01 02:47:18;;;;;;;51.47;47.13;;;16.10;99.90;;;;;;5010735;28;19913;-71
2023/10/01 02:49:52;;;;;;;52.38;48.10;;;16.10;99.90;;;;;;4995414;28;20041;-71
2023/10/01 02:52:21;;;;;;;49.55;45.38;;;16.10;99.90;;;;;;5010713;28;20169;-72
2023/10/01 02:54:54;;;;;;;51.72;47.80;;;16.20;99.90;;;;;;4998199;28;20054;-71
2023/10/01 02:57:23;;;;;;;52.25;48.30;;;16.10;99.90;;;;;;5007234;28;20501;-71
2023/10/01 03:02:44;;;;;;;54.03;49.45;;;15.80;99.90;;;;;;5010852;28;20579;-71
2023/10/01 03:05:23;;;;;;;52.33;48.22;;;15.70;99.90;;;;;;4994559;28;20694;-71
2023/10/01 03:07:51;;;;;;;48.80;44.88;;;15.80;99.90;;;;;;5010922;28;20046;-71
2023/10/01 03:10:26;;;;;;;52.30;48.50;;;15.70;99.90;;;;;;5011574;28;20053;-72
2023/10/01 03:12:53;;;;;;;46.72;43.20;;;15.70;99.90;;;;;;5030747;28;20045;-71
2023/10/01 03:15:35;;;;;;;48.90;45.15;;;15.70;99.90;;;;;;5029053;28;20064;-70
2023/10/01 03:18:34;;;;;;;50.53;46.30;;;15.70;99.90;;;;;;5030682;28;20041;-71
2023/10/01 03:26:07;;;;;;;47.33;43.30;;;15.90;99.90;;;;;;5059343;28;20044;-71
2023/10/01 03:29:13;;;;;;;44.05;40.38;;;15.80;99.90;;;;;;5052537;28;20045;-71
2023/10/01 03:31:21;;;;;;;43.13;39.67;;;15.80;99.90;;;;;;5052031;28;20025;-70
2023/10/01 03:33:53;;;;;;;44.90;41.03;;;15.80;99.90;;;;;;5052552;28;20032;-71
2023/10/01 03:36:25;;;;;;;45.50;41.50;;;15.80;99.90;;;;;;5052217;28;20491;-71
2023/10/01 03:38:59;;;;;;;49.33;45.15;;;15.80;99.90;;;;;;5052695;28;20041;-71
2023/10/01 03:41:27;;;;;;;49.15;45.25;;;15.80;99.90;;;;;;5052563;28;20471;-71
2023/10/01 03:44:08;;;;;;;45.67;41.92;;;15.80;99.90;;;;;;5052397;28;20040;-72
2023/10/01 03:46:42;;;;;;;50.38;46.08;;;15.90;99.90;;;;;;5051625;28;20044;-71
2023/10/01 03:51:58;;;;;;;45.50;41.58;;;15.80;99.90;;;;;;5059065;28;20063;-71
2023/10/01 03:54:51;;;;;;;45.47;41.83;;;15.60;99.90;;;;;;5051727;28;20064;-71
2023/10/01 03:57:16;;;;;;;42.58;38.40;;;15.60;99.90;;;;;;5052004;28;20051;-71
2023/10/01 03:59:52;;;;;;;45.67;41.60;;;15.70;99.90;;;;;;5052171;28;20490;-71
2023/10/01 04:02:28;;;;;;;44.83;41.08;;;15.70;99.90;;;;;;5051108;28;20033;-71
2023/10/01 04:04:58;;;;;;;44.83;41.30;;;15.70;99.90;;;;;;5050814;28;20055;-71
2023/10/01 04:07:40;;;;;;;47.17;43.17;;;15.80;99.90;;;;;;5052011;28;20045;-71
2023/10/01 04:10:14;;;;;;;65.20;60.35;;;15.90;99.90;;;;;;5052062;28;20052;-71
2023/10/01 04:12:44;;;;;;;70.32;65.18;;;15.90;99.90;;;;;;5032530;28;20072;-71
2023/10/01 04:15:15;;;;;;;63.33;58.70;;;15.80;99.90;;;;;;5030094;28;20052;-71
2023/10/01 04:18:08;;;;;;;67.35;62.58;;;15.60;99.90;;;;;;5012034;28;20041;-71
2023/10/01 04:20:28;;;;;;;45.10;41.20;;;15.50;99.90;;;;;;5014850;28;20041;-72
2023/10/01 04:23:04;;;;;;;43.22;39.72;;;15.40;99.90;;;;;;5032507;28;20034;-71
2023/10/01 04:25:36;;;;;;;41.63;38.22;;;15.50;99.90;;;;;;5031852;28;20040;-71
2023/10/01 04:28:08;;;;;;;64.65;60.10;;;15.50;99.90;;;;;;5032284;28;20017;-71
2023/10/01 04:30:34;;;;;;;57.88;53.45;;;15.60;99.90;;;;;;5029597;28;20492;-71
2023/10/01 04:33:17;;;;;;;64.18;59.35;;;15.80;99.90;;;;;;5030065;28;20042;-71
2023/10/01 04:35:51;;;;;;;48.28;44.58;;;15.80;99.90;;;;;;5032484;28;20045;-71
2023/10/01 04:38:21;;;;;;;43.40;40.10;;;15.70;99.90;;;;;;5038800;28;20041;-72
2023/10/01 04:40:51;;;;;;;52.35;48.08;;;15.70;99.90;;;;;;5038271;28;20045;-71
2023/10/01 04:43:19;;;;;;;51.92;47.90;;;15.70;99.90;;;;;;5038037;28;20041;-70
2023/10/01 04:45:45;;;;;;;45.67;42.15;;;15.70;99.90;;;;;;5035708;28;20040;-71
2023/10/01 04:48:15;;;;;;;43.90;40.28;;;15.70;99.90;;;;;;5036385;28;20062;-72
2023/10/01 04:50:49;;;;;;;42.45;39.05;;;15.60;99.90;;;;;;5048939;28;20391;-71
2023/10/01 04:53:19;;;;;;;43.97;40.35;;;15.50;99.90;;;;;;5042888;28;20045;-72
2023/10/01 04:55:57;;;;;;;41.63;38.10;;;15.40;99.90;;;;;;5037650;28;20515;-72
2023/10/01 04:58:23;;;;;;;40.03;36.90;;;15.40;99.90;;;;;;5036828;28;20034;-72
2023/10/01 05:00:50;;;;;;;42.45;38.67;;;15.50;99.90;;;;;;5037263;28;20033;-71
2023/10/01 05:03:16;;;;;;;46.10;42.42;;;15.50;99.90;;;;;;5037833;28;20400;-72
2023/10/01 05:05:42;;;;;;;43.33;39.47;;;15.40;99.90;;;;;;5037715;28;20025;-72
2023/10/01 05:08:15;;;;;;;40.65;37.03;;;15.40;99.90;;;;;;5038061;28;20026;-71
2023/10/01 05:10:51;;;;;;;41.45;37.95;;;15.40;99.90;;;;;;5038082;28;20026;-71
2023/10/01 05:13:20;;;;;;;40.75;37.13;;;15.40;99.90;;;;;;5046623;28;20037;-70
2023/10/01 05:15:49;;;;;;;45.53;41.97;;;15.40;99.90;;;;;;5036739;28;20508;-72
2023/10/01 05:18:19;;;;;;;47.53;43.63;;;15.60;99.90;;;;;;5038045;28;20038;-72
2023/10/01 05:20:48;;;;;;;45.20;41.45;;;15.60;99.90;;;;;;5037951;28;20025;-72
2023/10/01 05:23:15;;;;;;;43.10;39.58;;;15.60;99.90;;;;;;5039459;28;20049;-72
2023/10/01 05:25:45;;;;;;;44.78;40.88;;;15.60;99.90;;;;;;5037533;28;20033;-71
2023/10/01 05:28:23;;;;;;;47.65;43.92;;;15.60;99.90;;;;;;5038356;28;20384;-71
2023/10/01 05:30:57;;;;;;;47.95;44.17;;;15.60;99.90;;;;;;5035518;28;20033;-72
2023/10/01 05:33:24;;;;;;;51.22;47.13;;;15.70;99.90;;;;;;5037635;28;20639;-71
2023/10/01 05:35:54;;;;;;;53.63;49.65;;;15.80;99.90;;;;;;5037299;28;20034;-72
2023/10/01 05:38:21;;;;;;;51.33;47.33;;;15.90;99.90;;;;;;5037503;28;20633;-71
2023/10/01 05:40:52;;;;;;;65.25;60.85;;;16.00;99.90;;;;;;5037700;28;20037;-72
2023/10/01 05:43:18;;;;;;;;;;;15.90;99.90;;;;;;5037602;28;20038;-71
2023/10/01 05:45:50;;;;;;;51.45;47.28;;;15.90;99.90;;;;;;5036210;28;19913;-72
2023/10/01 05:48:19;;;;;;;52.80;48.72;;;15.90;99.90;;;;;;5034550;28;20045;-71
2023/10/01 05:50:49;;;;;;;62.40;57.95;;;15.90;99.90;;;;;;5030078;28;20034;-72
2023/10/01 05:53:18;;;;;;;51.35;47.70;;;15.90;99.90;;;;;;5032639;28;20033;-71
2023/10/01 05:55:45;;;;;;;50.60;47.05;;;16.00;99.90;;;;;;5031583;28;20060;-71
2023/10/01 05:58:14;;;;;;;55.95;51.92;;;16.00;99.90;;;;;;5045549;28;20033;-71
2023/10/01 06:03:30;;;;;;;52.20;48.30;;;15.90;99.90;;;;;;5034749;28;20048;-71
2023/10/01 06:05:59;;;;;;;47.58;43.88;;;15.80;99.90;;;;;;5032032;28;20037;-72
2023/10/01 06:08:26;;;;;;;48.17;44.40;;;15.70;99.90;;;;;;5034506;28;20030;-71
2023/10/01 06:11:05;;;;;;;50.55;46.88;;;15.80;99.90;;;;;;5033391;28;20041;-71
2023/10/01 06:13:37;;;;;;;50.58;46.65;;;15.80;99.90;;;;;;5023801;28;20049;-69
2023/10/01 06:16:16;;;;;;;52.78;48.92;;;15.80;99.90;;;;;;5032958;28;20045;-71
2023/10/01 06:18:49;;;;;;;50.63;46.40;;;15.90;99.90;;;;;;5034261;28;20052;-71
2023/10/01 06:21:23;;;;;;;57.70;53.38;;;15.70;99.90;;;;;;5022900;28;20042;-71
2023/10/01 06:23:51;;;;;;;54.55;50.15;;;15.70;99.90;;;;;;5029836;28;20037;-71
2023/10/01 06:26:37;;;;;;;52.20;48.20;;;15.60;99.90;;;;;;5034476;28;20032;-71
2023/10/01 06:29:08;;;;;;;49.42;45.72;;;15.60;99.90;;;;;;5032832;28;20507;-72
2023/10/01 06:34:23;;;;;;;44.67;40.92;;;15.80;99.90;;;;;;5042720;28;19913;-72
2023/10/01 06:36:58;;;;;;;54.88;50.60;;;15.80;99.90;;;;;;5033297;28;20049;-71
2023/10/01 06:39:25;;;;;;;53.58;49.47;;;15.70;99.90;;;;;;5032533;28;20041;-71
2023/10/01 06:42:17;;;;;;;51.63;47.70;;;15.70;99.90;;;;;;5032844;28;20049;-71
2023/10/01 06:44:41;;;;;;;52.38;48.28;;;15.70;99.90;;;;;;5031223;28;20434;-71
2023/10/01 06:47:14;;;;;;;48.33;44.80;;;15.80;99.90;;;;;;5047347;28;20036;-72
2023/10/01 06:49:57;;;;;;;54.38;50.22;;;15.70;99.90;;;;;;5047782;28;20845;-71
2023/10/01 06:52:32;;;;;;;50.17;46.20;;;15.80;99.90;;;;;;5051390;28;20483;-71
2023/10/01 06:55:01;;;;;;;52.13;48.40;;;15.90;99.90;;;;;;5053475;28;20061;-71
2023/10/01 06:57:28;;;;;;;52.67;49.03;;;15.80;99.90;;;;;;5049753;28;20060;-72
2023/10/01 06:59:57;;;;;;;51.85;47.92;;;15.80;99.90;;;;;;5053227;28;20518;-71
2023/10/01 07:02:25;;;;;;;59.50;55.28;;;15.80;99.90;;;;;;5052024;28;20041;-72
2023/10/01 07:04:58;;;;;;;42.30;38.80;;;15.90;99.90;;;;;;5052894;28;20472;-71
2023/10/01 07:07:24;;;;;;;54.47;50.50;;;16.20;99.90;;;;;;5052533;28;20049;-71
2023/10/01 07:09:53;;;;;;;45.00;41.38;;;16.40;99.90;;;;;;5053408;28;20058;-67
2023/10/01 07:12:20;;;;;;;47.15;43.58;;;16.60;99.90;;;;;;5052486;28;20480;-68
2023/10/01 07:14:50;;;;;;;43.47;40.03;;;17.00;99.90;;;;;;5051970;28;20052;-71
2023/10/01 07:17:23;;;;;;;48.75;45.15;;;17.30;99.90;;;;;;5054719;28;20041;-72
2023/10/01 07:20:18;;;;;;;40.15;36.88;;;17.50;99.90;;;;;;5050972;28;20044;-72
2023/10/01 07:22:44;;;;;;;27.25;24.63;;;17.50;99.90;;;;;;5050283;28;20045;-72
2023/10/01 07:25:28;;;;;;;30.23;27.73;;;17.70;99.90;;;;;;5051945;28;20021;-72
2023/10/01 07:27:57;;;;;;;38.38;35.35;;;18.00;99.90;;;;;;5051187;28;20055;-72
2023/10/01 07:30:39;;;;;;;33.85;31.08;;;18.10;99.90;;;;;;5049311;28;20060;-72
2023/10/01 07:33:06;;;;;;;38.33;35.22;;;18.10;99.90;;;;;;5052284;28;20044;-72
2023/10/01 07:35:34;;;;;;;42.25;38.92;;;18.10;99.90;;;;;;5052067;28;20434;-72
2023/10/01 07:38:00;;;;;;;41.22;37.83;;;18.20;99.90;;;;;;5052732;28;20464;-72
2023/10/01 07:40:26;;;;;;;36.75;33.75;;;18.30;99.90;;;;;;5051794;28;20051;-72
2023/10/01 07:42:57;;;;;;;46.22;42.60;;;18.30;99.90;;;;;;5060712;28;20479;-72
2023/10/01 07:45:24;;;;;;;44.63;41.38;;;18.50;99.90;;;;;;5068467;28;20055;-68
2023/10/01 07:47:50;;;;;;;47.92;44.58;;;18.90;99.90;;;;;;5051933;28;20507;-68
2023/10/01 07:50:17;;;;;;;53.88;50.03;;;19.10;99.90;;;;;;5050168;28;20040;-68
2023/10/01 07:52:44;;;;;;;61.35;57.17;;;19.40;99.90;;;;;;5052444;28;20041;-67
2023/10/01 07:55:34;;;;;;;51.42;47.63;;;19.50;99.90;;;;;;5051755;28;20051;-67
2023/10/01 08:00:47;;;;;;;85.63;80.40;;;19.60;99.90;;;;;;5057776;28;20502;-67
2023/10/01 08:05:49;;;;;;;65.35;60.85;;;19.50;99.90;;;;;;5072833;28;20032;-67
2023/10/01 08:08:37;;;;;;;75.70;70.88;;;19.50;99.90;;;;;;5051259;28;20471;-69
2023/10/01 08:11:03;;;;;;;67.70;63.42;;;19.50;99.90;;;;;;5050966;28;20048;-73
2023/10/01 08:13:30;;;;;;;94.93;89.25;;;19.50;99.90;;;;;;5066843;28;20049;-73
2023/10/01 08:16:02;;;;;;;86.00;80.80;;;19.50;99.90;;;;;;5050723;28;20041;-73
2023/10/01 08:18:35;;;;;;;87.53;82.00;;;19.70;99.90;;;;;;5052150;28;20368;-73
2023/10/01 08:21:15;;;;;;;87.45;82.25;;;20.00;99.90;;;;;;5048782;28;20044;-72
2023/10/01 08:23:48;;;;;;;118.47;111.80;;;20.10;99.90;;;;;;5049689;28;20562;-73
2023/10/01 08:28:59;;;;;;;125.03;118.00;;;20.30;99.90;;;;;;5050224;28;20036;-73
2023/10/01 08:34:23;;;;;;;130.15;122.70;;;20.60;99.90;;;;;;5055511;28;20033;-72
2023/10/01 08:36:56;;;;;;;127.68;120.22;;;20.50;99.90;;;;;;5049761;28;20052;-73
2023/10/01 08:42:10;;;;;;;184.20;173.90;;;20.50;99.90;;;;;;5057712;28;20037;-73
2023/10/01 08:44:54;;;;;;;168.93;159.52;;;20.80;99.90;;;;;;5051377;28;20052;-73
2023/10/01 08:47:31;;;;;;;187.80;177.50;;;21.00;99.90;;;;;;5049681;28;20480;-72
2023/10/01 08:52:55;;;;;;;232.13;219.77;;;21.20;99.90;;;;;;5056760;28;20041;-73
2023/10/01 08:55:35;;;;;;;219.75;207.85;;;21.40;99.90;;;;;;5050988;28;20426;-72
2023/10/01 08:58:15;;;;;;;262.23;247.90;;;21.40;99.90;;;;;;5050767;28;20040;-72
2023/10/01 09:01:10;;;;;;;249.20;235.90;;;21.40;99.90;;;;;;5034048;28;20040;-72
2023/10/01 09:03:36;;;;;;;247.90;234.52;;;21.50;99.90;;;;;;5050818;28;20484;-72
2023/10/01 09:06:03;;;;;;;209.88;198.70;;;21.60;99.90;;;;;;5050794;28;20055;-73
2023/10/01 09:08:42;;;;;;;234.10;221.70;;;21.60;99.90;;;;;;5054264;28;20120;-73
2023/10/01 09:11:13;;;;;;;206.23;195.38;;;21.50;99.90;;;;;;5050190;28;20037;-73
2023/10/01 09:14:17;;;;;;;155.52;146.82;;;21.50;99.90;;;;;;5049424;28;20040;-69
2023/10/01 09:16:42;;;;;;;150.98;142.38;;;21.40;99.90;;;;;;5050284;28;20045;-85
2023/10/01 09:21:56;;;;;;;147.18;139.25;;;21.50;99.90;;;;;;5045162;28;20029;-74
2023/10/01 09:24:38;;;;;;;151.82;143.43;;;21.60;99.90;;;;;;5052606;28;20025;-74
2023/10/01 09:27:20;;;;;;;149.40;141.30;;;21.70;99.90;;;;;;5054209;28;20033;-74
2023/10/01 09:29:48;;;;;;;167.15;157.85;;;21.80;99.90;;;;;;5054831;28;20028;-74
2023/10/01 09:32:14;;;;;;;169.80;160.40;;;21.90;99.90;;;;;;5053922;28;20044;-74
2023/10/01 09:34:47;;;;;;;160.20;151.50;;;21.90;99.90;;;;;;5054082;28;20040;-74
2023/10/01 09:40:12;;;;;;;162.32;153.55;;;21.90;99.90;;;;;;5061149;28;20032;-73
2023/10/01 09:42:44;;;;;;;194.20;184.02;;;22.20;99.90;;;;;;5054331;28;20045;-73
2023/10/01 09:45:26;;;;;;;214.27;203.00;;;22.40;99.90;;;;;;5035910;28;20037;-74
2023/10/01 09:48:03;;;;;;;217.48;206.35;;;22.50;99.90;;;;;;5041826;28;20021;-74
2023/10/01 09:50:41;;;;;;;239.13;226.85;;;22.60;99.90;;;;;;5053017;28;20049;-74
2023/10/01 09:53:20;;;;;;;240.77;228.48;;;22.70;99.90;;;;;;5053345;28;20387;-73
2023/10/01 09:55:51;;;;;;;246.73;234.00;;;22.80;99.90;;;;;;5036437;28;20029;-74
2023/10/01 09:58:29;;;;;;;286.55;271.65;;;22.90;99.90;;;;;;5054438;28;20056;-74
2023/10/01 10:01:00;;;;;;;291.63;276.38;;;23.00;99.90;;;;;;5052497;28;20029;-74
2023/10/01 10:03:36;;;;;;;272.38;258.25;;;23.10;99.90;;;;;;5074067;28;20475;-74
2023/10/01 10:06:06;;;;;;;304.85;288.75;;;23.10;99.90;;;;;;5062863;28;20037;-74
2023/10/01 10:08:34;;;;;;;319.50;302.70;;;23.10;99.90;;;;;;5040247;28;20046;-74
2023/10/01 10:11:02;;;;;;;314.70;298.20;;;23.20;99.90;;;;;;5039117;28;20033;-74
2023/10/01 10:13:36;;;;;;;299.27;283.70;;;23.30;99.90;;;;;;5054043;28;20044;-74
2023/10/01 10:19:08;;;;;;;310.65;294.13;;;23.30;99.90;;;;;;5060326;28;20025;-74
2023/10/01 10:22:05;;;;;;;304.52;288.73;;;23.40;99.90;;;;;;5053599;28;20037;-74
2023/10/01 10:24:32;;;;;;;313.20;296.85;;;23.50;99.90;;;;;;5052813;28;20037;-74
2023/10/01 10:27:08;;;;;;;302.80;287.08;;;23.60;99.90;;;;;;5053213;28;20040;-75
2023/10/01 10:29:47;;;;;;;356.33;336.90;;;23.70;99.90;;;;;;5053781;28;20040;-74
2023/10/01 10:32:13;;;;;;;351.42;332.25;;;23.80;99.90;;;;;;5051746;28;20025;-74
2023/10/01 10:35:03;;;;;;;340.80;322.88;;;23.80;99.90;;;;;;5052459;28;20025;-73
2023/10/01 10:37:35;;;;;;;361.40;342.27;;;23.90;99.90;;;;;;5052593;28;20060;-74
2023/10/01 10:42:46;;;;;;;403.15;381.17;;;24.00;99.90;;;;;;5060042;28;20037;-74
2023/10/01 10:45:24;;;;;;;419.40;395.85;;;24.00;99.90;;;;;;5052306;28;20040;-75
2023/10/01 10:47:58;;;;;;;451.23;425.30;;;24.10;99.90;;;;;;5053728;28;20037;-74
2023/10/01 10:50:50;;;;;;;431.45;407.20;;;24.20;99.90;;;;;;5034898;28;20052;-75
2023/10/01 10:53:39;;;;;;;453.65;427.83;;;24.30;99.90;;;;;;5033361;28;20038;-74
2023/10/01 10:56:10;;;;;;;435.77;411.45;;;24.40;99.90;;;;;;5046735;28;20037;-74
2023/10/01 10:59:03;;;;;;;427.27;403.60;;;24.50;99.90;;;;;;5052993;28;20037;-74
2023/10/01 11:01:46;;;;;;;432.52;408.20;;;24.60;99.90;;;;;;5039209;28;20038;-74
2023/10/01 11:04:14;;;;;;;423.33;399.83;;;24.60;99.90;;;;;;5032941;28;20045;-75
2023/10/01 11:06:42;;;;;;;462.33;435.85;;;24.60;99.90;;;;;;5032689;28;20025;-75
2023/10/01 11:09:26;;;;;;;465.48;438.52;;;24.70;99.90;;;;;;5033453;28;20045;-74
2023/10/01 11:12:07;;;;;;;454.63;428.67;;;24.80;99.90;;;;;;5033607;28;20037;-74
2023/10/01 11:14:36;;;;;;;427.58;403.45;;;24.80;99.90;;;;;;5033529;28;20049;-75
2023/10/01 11:17:13;;;;;;;466.25;439.25;;;24.90;99.90;;;;;;5033378;28;20052;-75
2023/10/01 11:19:40;;;;;;;444.60;419.48;;;24.90;99.90;;;;;;5033374;28;20479;-74
2023/10/01 11:22:07;;;;;;;436.17;411.27;;;25.00;99.90;;;;;;5032315;28;20049;-74
2023/10/01 11:24:33;;;;;;;433.30;408.63;;;25.10;99.90;;;;;;5031119;28;20033;-74
2023/10/01 11:30:24;;;;;;;403.38;381.02;;;25.20;99.90;;;;;;5034081;28;20484;-74
2023/10/01 11:35:33;;;;;;;387.58;366.67;;;25.20;99.90;;;;;;5076013;28;20040;-74
2023/10/01 11:38:00;;;;;;;385.23;364.65;;;25.20;99.90;;;;;;5052353;28;20381;-74
2023/10/01 11:43:23;;;;;;;402.98;380.88;;;25.30;99.90;;;;;;5057756;28;20033;-75
2023/10/01 11:46:19;;;;;;;404.13;382.33;;;25.30;99.90;;;;;;5050497;28;20033;-74
2023/10/01 11:49:02;;;;;;;399.85;378.20;;;25.40;99.90;;;;;;5009949;28;20034;-74
2023/10/01 11:54:19;;;;;;;377.33;357.10;;;25.50;99.90;;;;;;5029925;28;20038;-74
2023/10/01 11:56:47;;;;;;;389.73;368.75;;;25.60;99.90;;;;;;5022704;28;20052;-74
2023/10/01 11:59:19;;;;;;;401.67;380.08;;;25.60;99.90;;;;;;5029674;28;20044;-74
2023/10/01 12:01:54;;;;;;;416.73;394.00;;;25.60;99.90;;;;;;5015718;28;20034;-75
2023/10/01 12:07:15;;;;;;;378.23;358.40;;;25.60;99.90;;;;;;5011330;28;20057;-75
2023/10/01 12:09:49;;;;;;;398.00;376.73;;;25.70;99.90;;;;;;5009463;28;20038;-75
2023/10/01 12:12:19;;;;;;;415.45;392.77;;;25.80;99.90;;;;;;5009654;28;20048;-75
2023/10/01 12:15:33;;;;;;;400.83;379.23;;;25.90;99.90;;;;;;5009355;28;20053;-75
2023/10/01 12:17:46;;;;;;;389.35;368.25;;;26.00;99.90;;;;;;5008763;28;20542;-75
2023/10/01 12:20:22;;;;;;;422.55;399.40;;;26.00;99.90;;;;;;5009513;28;20377;-74
2023/10/01 12:23:10;;;;;;;418.45;395.77;;;26.00;99.90;;;;;;5009388;28;20045;-75
2023/10/01 12:25:47;;;;;;;388.42;367.30;;;26.00;99.90;;;;;;5018310;28;20033;-75
2023/10/01 12:28:29;;;;;;;392.30;371.08;;;26.00;99.90;;;;;;5031613;28;20044;-75
2023/10/01 12:31:02;;;;;;;434.60;410.10;;;26.10;99.90;;;;;;5030471;28;20025;-75
2023/10/01 12:33:43;;;;;;;414.17;391.30;;;26.20;99.90;;;;;;5031920;28;20033;-75
2023/10/01 12:44:25;;;;;;;442.83;418.43;;;26.60;99.90;;;;;;5037967;28;20468;-75
2023/10/01 12:46:54;;;;;;;446.08;421.17;;;26.70;99.90;;;;;;5030014;28;20048;-75
2023/10/01 12:49:23;;;;;;;485.85;458.45;;;26.80;99.90;;;;;;5032036;28;20038;-74
2023/10/01 12:51:53;;;;;;;1999.90;999.90;;;26.80;99.90;;;;;;5031253;28;20038;-75
2023/10/01 12:54:25;;;;;;;1999.90;999.90;;;26.70;99.90;;;;;;5031324;28;20117;-74
2023/10/01 12:57:12;;;;;;;1999.90;999.90;;;26.70;99.90;;;;;;5034481;28;20041;-75
2023/10/01 12:59:41;;;;;;;1999.90;999.90;;;26.70;99.90;;;;;;5035784;28;20045;-75
2023/10/01 13:02:28;;;;;;;1999.90;999.90;;;26.80;99.90;;;;;;5034858;28;20105;-75
2023/10/01 13:07:45;;;;;;;1999.90;999.90;;;26.90;99.90;;;;;;5039160;28;20029;-75
2023/10/01 13:10:12;;;;;;;1999.90;999.90;;;27.00;99.90;;;;;;5033370;28;20037;-75
2023/10/01 13:12:56;;;;;;;1999.90;999.90;;;27.10;99.90;;;;;;5032294;28;20038;-74
2023/10/01 13:15:40;;;;;;;1999.90;999.90;;;27.20;99.90;;;;;;5040966;28;20063;-75
2023/10/01 13:18:18;;;;;;;1999.90;999.90;;;27.20;99.90;;;;;;5054991;28;20078;-76
2023/10/01 13:23:16;;;;;;;1999.90;999.90;;;27.60;99.90;;;;;;5060233;28;20033;-75
2023/10/01 13:26:05;;;;;;;1999.90;999.90;;;27.50;99.90;;;;;;5054529;28;20379;-75
2023/10/01 13:28:45;;;;;;;1999.90;999.90;;;27.30;99.90;;;;;;5041874;28;20052;-75
2023/10/01 13:34:06;;;;;;;1999.90;999.90;;;27.10;99.90;;;;;;5041483;28;20396;-74
2023/10/01 14:08:49;;;;;;;1999.90;999.90;;;27.50;99.90;;;;;;5039577;28;20026;-75
2023/10/01 14:11:26;;;;;;;1999.90;999.90;;;27.50;99.90;;;;;;5027298;28;20044;-74
2023/10/01 14:13:53;;;;;;;1999.90;999.90;;;27.50;99.90;;;;;;5031064;28;20545;-75
2023/10/01 14:16:22;;;;;;;1999.90;999.90;;;27.50;99.90;;;;;;5030476;28;20037;-74
2023/10/01 14:18:55;;;;;;;1999.90;999.90;;;27.50;99.90;;;;;;5033844;28;20030;-75
2023/10/01 14:21:24;;;;;;;1999.90;999.90;;;27.50;99.90;;;;;;5033513;28;20407;-74
2023/10/01 14:23:57;;;;;;;1999.90;999.90;;;27.50;99.90;;;;;;5033544;28;20029;-75
2023/10/01 14:26:43;;;;;;;1999.90;999.90;;;27.50;99.90;;;;;;5033139;28;20484;-75
2023/10/01 14:29:10;;;;;;;1999.90;999.90;;;27.40;99.90;;;;;;5033947;28;20494;-75
2023/10/01 14:31:48;;;;;;;1999.90;999.90;;;27.50;99.90;;;;;;5032549;28;20026;-75
2023/10/01 14:34:17;;;;;;;1999.90;999.90;;;27.50;99.90;;;;;;5032696;28;20092;-74
2023/10/01 14:36:43;;;;;;;1999.90;999.90;;;27.40;99.90;;;;;;5032981;28;20029;-75
2023/10/01 14:39:12;;;;;;;1999.90;999.90;;;27.40;99.90;;;;;;5029070;28;20041;-74
2023/10/01 14:41:50;;;;;;;1999.90;999.90;;;27.40;99.90;;;;;;5029845;28;20045;-75